sensor_id;sensor_type;location;lat;lon;timestamp;P1;durP1;ratioP1;P2;durP2;ratioP2
20271;SDS011;10295;49.812;9.866;2023-09-19T00:01:46;3.43;;;1.13;;
20271;SDS011;10295;49.812;9.866;2023-09-19T00:04:14;5.60;;;1.10;;
20271;SDS011;10295;49.812;9.866;2023-09-19T00:06:41;4.67;;;0.90;;
20271;SDS011;10295;49.812;9.866;2023-09-19T00:09:10;4.63;;;1.23;;
20271;SDS011;10295;49.812;9.866;2023-09-19T00:11:37;5.03;;;1.20;;
20271;SDS011;10295;49.812;9.866;2023-09-19T00:14:05;3.83;;;1.10;;
20271;SDS011;10295;49.812;9.866;2023-09-19T00:16:34;4.43;;;1.27;;
20271;SDS011;10295;49.812;9.866;2023-09-19T00:19:02;4.03;;;1.17;;
20271;SDS011;10295;49.812;9.866;2023-09-19T00:21:31;6.57;;;1.20;;
20271;SDS011;10295;49.812;9.866;2023-09-19T00:23:58;5.90;;;1.10;;
20271;SDS011;10295;49.812;9.866;2023-09-19T00:26:26;4.30;;;1.13;;
20271;SDS011;10295;49.812;9.866;2023-09-19T00:28:56;3.70;;;1.10;;
20271;SDS011;10295;49.812;9.866;2023-09-19T00:31:26;3.47;;;1.00;;
20271;SDS011;10295;49.812;9.866;2023-09-19T00:33:53;5.43;;;1.40;;
20271;SDS011;10295;49.812;9.866;2023-09-19T00:36:20;4.57;;;1.30;;
20271;SDS011;10295;49.812;9.866;2023-09-19T00:38:47;4.93;;;1.40;;
20271;SDS011;10295;49.812;9.866;2023-09-19T00:41:14;5.67;;;1.40;;
20271;SDS011;10295;49.812;9.866;2023-09-19T00:43:42;4.07;;;1.10;;
20271;SDS011;10295;49.812;9.866;2023-09-19T00:46:09;3.87;;;1.30;;
20271;SDS011;10295;49.812;9.866;2023-09-19T00:48:40;4.70;;;1.17;;
20271;SDS011;10295;49.812;9.866;2023-09-19T00:51:10;4.57;;;1.10;;
20271;SDS011;10295;49.812;9.866;2023-09-19T00:53:37;6.60;;;1.20;;
20271;SDS011;10295;49.812;9.866;2023-09-19T00:56:05;3.53;;;1.10;;
20271;SDS011;10295;49.812;9.866;2023-09-19T00:58:33;5.47;;;1.37;;
20271;SDS011;10295;49.812;9.866;2023-09-19T01:01:01;4.73;;;1.30;;
20271;SDS011;10295;49.812;9.866;2023-09-19T01:03:33;5.27;;;1.30;;
20271;SDS011;10295;49.812;9.866;2023-09-19T01:06:01;4.73;;;1.30;;
20271;SDS011;10295;49.812;9.866;2023-09-19T01:08:28;4.80;;;1.30;;
20271;SDS011;10295;49.812;9.866;2023-09-19T01:10:58;5.60;;;1.30;;
20271;SDS011;10295;49.812;9.866;2023-09-19T01:13:29;5.97;;;1.20;;
20271;SDS011;10295;49.812;9.866;2023-09-19T01:16:11;4.50;;;1.30;;
20271;SDS011;10295;49.812;9.866;2023-09-19T01:18:47;3.63;;;1.20;;
20271;SDS011;10295;49.812;9.866;2023-09-19T01:21:25;4.87;;;1.33;;
20271;SDS011;10295;49.812;9.866;2023-09-19T01:31:34;3.73;;;1.20;;
20271;SDS011;10295;49.812;9.866;2023-09-19T01:34:04;4.63;;;1.30;;
20271;SDS011;10295;49.812;9.866;2023-09-19T01:36:33;6.80;;;1.23;;
20271;SDS011;10295;49.812;9.866;2023-09-19T01:39:05;3.80;;;1.27;;
20271;SDS011;10295;49.812;9.866;2023-09-19T01:41:41;4.80;;;1.40;;
20271;SDS011;10295;49.812;9.866;2023-09-19T01:44:15;5.37;;;1.50;;
20271;SDS011;10295;49.812;9.866;2023-09-19T01:46:44;6.10;;;1.17;;
20271;SDS011;10295;49.812;9.866;2023-09-19T01:52:00;5.07;;;1.50;;
20271;SDS011;10295;49.812;9.866;2023-09-19T01:54:31;8.13;;;1.43;;
20271;SDS011;10295;49.812;9.866;2023-09-19T01:57:02;9.40;;;1.40;;
20271;SDS011;10295;49.812;9.866;2023-09-19T01:59:41;7.33;;;1.70;;
20271;SDS011;10295;49.812;9.866;2023-09-19T02:02:10;6.50;;;1.43;;
20271;SDS011;10295;49.812;9.866;2023-09-19T02:04:38;7.00;;;1.50;;
20271;SDS011;10295;49.812;9.866;2023-09-19T02:07:05;4.50;;;1.70;;
20271;SDS011;10295;49.812;9.866;2023-09-19T02:09:34;4.07;;;1.30;;
20271;SDS011;10295;49.812;9.866;2023-09-19T02:12:04;5.80;;;1.60;;
20271;SDS011;10295;49.812;9.866;2023-09-19T02:14:31;7.57;;;1.60;;
20271;SDS011;10295;49.812;9.866;2023-09-19T02:16:58;6.07;;;1.60;;
20271;SDS011;10295;49.812;9.866;2023-09-19T02:19:26;6.60;;;1.70;;
20271;SDS011;10295;49.812;9.866;2023-09-19T02:21:53;6.07;;;1.70;;
20271;SDS011;10295;49.812;9.866;2023-09-19T02:24:21;7.30;;;1.60;;
20271;SDS011;10295;49.812;9.866;2023-09-19T02:26:52;7.60;;;1.80;;
20271;SDS011;10295;49.812;9.866;2023-09-19T02:29:20;6.73;;;1.87;;
20271;SDS011;10295;49.812;9.866;2023-09-19T02:31:48;5.87;;;1.50;;
20271;SDS011;10295;49.812;9.866;2023-09-19T02:34:16;8.97;;;2.30;;
20271;SDS011;10295;49.812;9.866;2023-09-19T02:36:43;6.37;;;1.80;;
20271;SDS011;10295;49.812;9.866;2023-09-19T02:39:11;6.03;;;2.07;;
20271;SDS011;10295;49.812;9.866;2023-09-19T02:41:38;8.60;;;2.10;;
20271;SDS011;10295;49.812;9.866;2023-09-19T02:44:05;7.87;;;2.20;;
20271;SDS011;10295;49.812;9.866;2023-09-19T02:46:34;8.83;;;2.30;;
20271;SDS011;10295;49.812;9.866;2023-09-19T02:49:04;5.90;;;2.00;;
20271;SDS011;10295;49.812;9.866;2023-09-19T02:51:32;5.80;;;2.10;;
20271;SDS011;10295;49.812;9.866;2023-09-19T02:54:00;5.80;;;1.90;;
20271;SDS011;10295;49.812;9.866;2023-09-19T02:56:29;9.23;;;2.27;;
20271;SDS011;10295;49.812;9.866;2023-09-19T02:58:58;7.87;;;2.50;;
20271;SDS011;10295;49.812;9.866;2023-09-19T03:01:26;12.87;;;2.70;;
20271;SDS011;10295;49.812;9.866;2023-09-19T03:03:55;10.73;;;2.70;;
20271;SDS011;10295;49.812;9.866;2023-09-19T03:06:22;9.13;;;2.40;;
20271;SDS011;10295;49.812;9.866;2023-09-19T03:08:50;11.00;;;2.83;;
20271;SDS011;10295;49.812;9.866;2023-09-19T03:11:17;8.23;;;2.50;;
20271;SDS011;10295;49.812;9.866;2023-09-19T03:13:52;12.57;;;3.13;;
20271;SDS011;10295;49.812;9.866;2023-09-19T03:16:19;7.23;;;2.60;;
20271;SDS011;10295;49.812;9.866;2023-09-19T03:18:48;9.07;;;2.70;;
20271;SDS011;10295;49.812;9.866;2023-09-19T03:21:15;9.20;;;2.97;;
20271;SDS011;10295;49.812;9.866;2023-09-19T03:23:43;7.43;;;2.93;;
20271;SDS011;10295;49.812;9.866;2023-09-19T03:26:13;8.90;;;2.93;;
20271;SDS011;10295;49.812;9.866;2023-09-19T03:28:42;8.53;;;3.23;;
20271;SDS011;10295;49.812;9.866;2023-09-19T03:31:09;9.90;;;3.50;;
20271;SDS011;10295;49.812;9.866;2023-09-19T03:33:37;10.30;;;3.70;;
20271;SDS011;10295;49.812;9.866;2023-09-19T03:36:05;9.93;;;3.43;;
20271;SDS011;10295;49.812;9.866;2023-09-19T03:38:32;11.03;;;3.50;;
20271;SDS011;10295;49.812;9.866;2023-09-19T03:41:02;8.90;;;3.30;;
20271;SDS011;10295;49.812;9.866;2023-09-19T03:43:31;11.10;;;4.10;;
20271;SDS011;10295;49.812;9.866;2023-09-19T03:46:01;9.47;;;4.10;;
20271;SDS011;10295;49.812;9.866;2023-09-19T03:48:30;8.00;;;4.00;;
20271;SDS011;10295;49.812;9.866;2023-09-19T03:50:57;12.00;;;4.60;;
20271;SDS011;10295;49.812;9.866;2023-09-19T03:53:25;9.83;;;4.90;;
20271;SDS011;10295;49.812;9.866;2023-09-19T03:55:52;11.30;;;4.90;;
20271;SDS011;10295;49.812;9.866;2023-09-19T03:58:19;12.03;;;4.77;;
20271;SDS011;10295;49.812;9.866;2023-09-19T04:00:46;9.70;;;4.30;;
20271;SDS011;10295;49.812;9.866;2023-09-19T04:03:16;10.43;;;4.20;;
20271;SDS011;10295;49.812;9.866;2023-09-19T04:05:47;9.73;;;4.17;;
20271;SDS011;10295;49.812;9.866;2023-09-19T04:08:14;10.10;;;4.20;;
20271;SDS011;10295;49.812;9.866;2023-09-19T04:10:42;10.53;;;3.93;;
20271;SDS011;10295;49.812;9.866;2023-09-19T04:13:12;10.27;;;3.63;;
20271;SDS011;10295;49.812;9.866;2023-09-19T04:15:40;11.47;;;3.80;;
20271;SDS011;10295;49.812;9.866;2023-09-19T04:18:07;9.77;;;3.70;;
20271;SDS011;10295;49.812;9.866;2023-09-19T04:20:34;10.37;;;3.90;;
20271;SDS011;10295;49.812;9.866;2023-09-19T04:23:02;10.57;;;3.70;;
20271;SDS011;10295;49.812;9.866;2023-09-19T04:25:30;8.50;;;3.10;;
20271;SDS011;10295;49.812;9.866;2023-09-19T04:27:58;9.00;;;3.40;;
20271;SDS011;10295;49.812;9.866;2023-09-19T04:30:25;11.33;;;3.80;;
20271;SDS011;10295;49.812;9.866;2023-09-19T04:32:53;8.40;;;3.80;;
20271;SDS011;10295;49.812;9.866;2023-09-19T04:35:20;9.27;;;4.00;;
20271;SDS011;10295;49.812;9.866;2023-09-19T04:37:47;11.50;;;4.10;;
20271;SDS011;10295;49.812;9.866;2023-09-19T04:40:14;10.77;;;4.47;;
20271;SDS011;10295;49.812;9.866;2023-09-19T04:42:44;9.90;;;3.77;;
20271;SDS011;10295;49.812;9.866;2023-09-19T04:45:12;10.73;;;4.23;;
20271;SDS011;10295;49.812;9.866;2023-09-19T04:47:39;10.83;;;4.07;;
20271;SDS011;10295;49.812;9.866;2023-09-19T04:50:07;9.57;;;4.30;;
20271;SDS011;10295;49.812;9.866;2023-09-19T04:52:39;14.27;;;4.20;;
20271;SDS011;10295;49.812;9.866;2023-09-19T04:55:11;10.23;;;4.10;;
20271;SDS011;10295;49.812;9.866;2023-09-19T04:57:44;12.20;;;4.70;;
20271;SDS011;10295;49.812;9.866;2023-09-19T05:00:15;11.00;;;4.50;;
20271;SDS011;10295;49.812;9.866;2023-09-19T05:02:43;10.90;;;4.00;;
20271;SDS011;10295;49.812;9.866;2023-09-19T05:05:11;10.10;;;4.47;;
20271;SDS011;10295;49.812;9.866;2023-09-19T05:07:41;10.10;;;4.27;;
20271;SDS011;10295;49.812;9.866;2023-09-19T05:10:08;15.20;;;4.30;;
20271;SDS011;10295;49.812;9.866;2023-09-19T05:12:36;10.53;;;4.37;;
20271;SDS011;10295;49.812;9.866;2023-09-19T05:15:03;8.67;;;4.40;;
20271;SDS011;10295;49.812;9.866;2023-09-19T05:17:31;11.27;;;4.40;;
20271;SDS011;10295;49.812;9.866;2023-09-19T05:19:59;13.77;;;4.50;;
20271;SDS011;10295;49.812;9.866;2023-09-19T05:22:37;10.70;;;4.20;;
20271;SDS011;10295;49.812;9.866;2023-09-19T05:25:07;11.57;;;4.90;;
20271;SDS011;10295;49.812;9.866;2023-09-19T05:27:34;9.90;;;3.90;;
20271;SDS011;10295;49.812;9.866;2023-09-19T05:30:01;10.67;;;4.03;;
20271;SDS011;10295;49.812;9.866;2023-09-19T05:32:28;12.40;;;4.27;;
20271;SDS011;10295;49.812;9.866;2023-09-19T05:34:55;9.73;;;3.87;;
20271;SDS011;10295;49.812;9.866;2023-09-19T05:37:23;9.87;;;4.20;;
20271;SDS011;10295;49.812;9.866;2023-09-19T05:39:52;12.87;;;4.07;;
20271;SDS011;10295;49.812;9.866;2023-09-19T05:42:23;9.90;;;3.80;;
20271;SDS011;10295;49.812;9.866;2023-09-19T05:44:50;9.03;;;3.50;;
20271;SDS011;10295;49.812;9.866;2023-09-19T05:47:18;9.27;;;3.60;;
20271;SDS011;10295;49.812;9.866;2023-09-19T05:49:45;10.07;;;3.53;;
20271;SDS011;10295;49.812;9.866;2023-09-19T05:52:14;9.00;;;3.27;;
20271;SDS011;10295;49.812;9.866;2023-09-19T05:54:42;7.57;;;3.00;;
20271;SDS011;10295;49.812;9.866;2023-09-19T05:57:09;9.40;;;2.97;;
20271;SDS011;10295;49.812;9.866;2023-09-19T05:59:38;9.27;;;2.83;;
20271;SDS011;10295;49.812;9.866;2023-09-19T06:02:06;10.17;;;3.17;;
20271;SDS011;10295;49.812;9.866;2023-09-19T06:04:33;9.27;;;2.50;;
20271;SDS011;10295;49.812;9.866;2023-09-19T06:07:01;7.40;;;2.10;;
20271;SDS011;10295;49.812;9.866;2023-09-19T06:09:29;8.13;;;2.37;;
20271;SDS011;10295;49.812;9.866;2023-09-19T06:11:58;8.00;;;2.13;;
20271;SDS011;10295;49.812;9.866;2023-09-19T06:14:29;7.53;;;2.20;;
20271;SDS011;10295;49.812;9.866;2023-09-19T06:16:56;7.13;;;2.17;;
20271;SDS011;10295;49.812;9.866;2023-09-19T06:19:24;7.00;;;2.20;;
20271;SDS011;10295;49.812;9.866;2023-09-19T06:21:52;7.38;;;2.17;;
20271;SDS011;10295;49.812;9.866;2023-09-19T06:24:20;6.90;;;2.10;;
20271;SDS011;10295;49.812;9.866;2023-09-19T06:26:47;8.82;;;2.30;;
20271;SDS011;10295;49.812;9.866;2023-09-19T06:29:15;6.53;;;1.95;;
20271;SDS011;10295;49.812;9.866;2023-09-19T06:31:42;6.68;;;2.20;;
20271;SDS011;10295;49.812;9.866;2023-09-19T06:34:11;10.05;;;2.60;;
20271;SDS011;10295;49.812;9.866;2023-09-19T06:36:41;8.23;;;2.70;;
20271;SDS011;10295;49.812;9.866;2023-09-19T06:39:09;7.63;;;2.38;;
20271;SDS011;10295;49.812;9.866;2023-09-19T06:41:37;8.52;;;2.80;;
20271;SDS011;10295;49.812;9.866;2023-09-19T06:44:05;8.17;;;2.50;;
20271;SDS011;10295;49.812;9.866;2023-09-19T06:46:33;10.05;;;2.67;;
20271;SDS011;10295;49.812;9.866;2023-09-19T06:49:01;8.00;;;2.70;;
20271;SDS011;10295;49.812;9.866;2023-09-19T06:51:32;9.40;;;2.87;;
20271;SDS011;10295;49.812;9.866;2023-09-19T06:54:01;7.63;;;2.70;;
20271;SDS011;10295;49.812;9.866;2023-09-19T06:56:28;9.10;;;2.73;;
20271;SDS011;10295;49.812;9.866;2023-09-19T06:58:55;8.20;;;2.70;;
20271;SDS011;10295;49.812;9.866;2023-09-19T07:01:23;9.90;;;2.80;;
20271;SDS011;10295;49.812;9.866;2023-09-19T07:03:51;7.50;;;2.60;;
20271;SDS011;10295;49.812;9.866;2023-09-19T07:06:19;10.88;;;2.38;;
20271;SDS011;10295;49.812;9.866;2023-09-19T07:08:46;10.43;;;2.60;;
20271;SDS011;10295;49.812;9.866;2023-09-19T07:11:15;8.93;;;2.05;;
20271;SDS011;10295;49.812;9.866;2023-09-19T07:13:42;9.35;;;2.15;;
20271;SDS011;10295;49.812;9.866;2023-09-19T07:16:09;6.53;;;2.30;;
20271;SDS011;10295;49.812;9.866;2023-09-19T07:18:53;6.05;;;1.92;;
20271;SDS011;10295;49.812;9.866;2023-09-19T07:21:23;6.40;;;1.83;;
20271;SDS011;10295;49.812;9.866;2023-09-19T07:23:50;7.40;;;2.05;;
20271;SDS011;10295;49.812;9.866;2023-09-19T07:26:18;13.73;;;2.40;;
20271;SDS011;10295;49.812;9.866;2023-09-19T07:28:46;8.20;;;2.10;;
20271;SDS011;10295;49.812;9.866;2023-09-19T07:31:13;8.40;;;1.90;;
20271;SDS011;10295;49.812;9.866;2023-09-19T07:33:41;5.28;;;1.70;;
20271;SDS011;10295;49.812;9.866;2023-09-19T07:36:09;5.75;;;1.67;;
20271;SDS011;10295;49.812;9.866;2023-09-19T07:38:37;7.30;;;1.98;;
20271;SDS011;10295;49.812;9.866;2023-09-19T07:41:04;6.47;;;1.77;;
20271;SDS011;10295;49.812;9.866;2023-09-19T07:43:32;6.68;;;1.80;;
20271;SDS011;10295;49.812;9.866;2023-09-19T07:46:02;7.13;;;1.88;;
20271;SDS011;10295;49.812;9.866;2023-09-19T07:48:29;8.05;;;2.00;;
20271;SDS011;10295;49.812;9.866;2023-09-19T07:51:01;6.35;;;1.88;;
20271;SDS011;10295;49.812;9.866;2023-09-19T07:53:28;7.03;;;1.92;;
20271;SDS011;10295;49.812;9.866;2023-09-19T07:56:02;6.53;;;2.05;;
20271;SDS011;10295;49.812;9.866;2023-09-19T07:58:30;8.85;;;2.10;;
20271;SDS011;10295;49.812;9.866;2023-09-19T08:01:02;8.25;;;2.10;;
20271;SDS011;10295;49.812;9.866;2023-09-19T08:03:29;8.02;;;2.17;;
20271;SDS011;10295;49.812;9.866;2023-09-19T08:05:57;7.13;;;2.10;;
20271;SDS011;10295;49.812;9.866;2023-09-19T08:08:24;7.35;;;2.10;;
20271;SDS011;10295;49.812;9.866;2023-09-19T08:10:53;8.68;;;2.20;;
20271;SDS011;10295;49.812;9.866;2023-09-19T08:13:22;8.32;;;2.00;;
20271;SDS011;10295;49.812;9.866;2023-09-19T08:15:50;7.38;;;2.17;;
20271;SDS011;10295;49.812;9.866;2023-09-19T08:18:19;8.52;;;2.17;;
20271;SDS011;10295;49.812;9.866;2023-09-19T08:20:49;8.80;;;2.13;;
20271;SDS011;10295;49.812;9.866;2023-09-19T08:23:17;8.32;;;2.10;;
20271;SDS011;10295;49.812;9.866;2023-09-19T08:25:46;9.98;;;2.17;;
20271;SDS011;10295;49.812;9.866;2023-09-19T08:28:14;13.07;;;2.10;;
20271;SDS011;10295;49.812;9.866;2023-09-19T08:30:45;6.78;;;1.88;;
20271;SDS011;10295;49.812;9.866;2023-09-19T08:33:12;7.53;;;1.88;;
20271;SDS011;10295;49.812;9.866;2023-09-19T08:35:41;6.25;;;1.80;;
20271;SDS011;10295;49.812;9.866;2023-09-19T08:38:09;9.45;;;2.00;;
20271;SDS011;10295;49.812;9.866;2023-09-19T08:40:37;6.40;;;1.85;;
20271;SDS011;10295;49.812;9.866;2023-09-19T08:43:09;7.70;;;1.92;;
20271;SDS011;10295;49.812;9.866;2023-09-19T08:45:37;7.40;;;1.77;;
20271;SDS011;10295;49.812;9.866;2023-09-19T08:50:52;7.88;;;1.67;;
20271;SDS011;10295;49.812;9.866;2023-09-19T08:53:21;14.63;;;1.83;;
20271;SDS011;10295;49.812;9.866;2023-09-19T08:55:53;8.50;;;1.92;;
20271;SDS011;10295;49.812;9.866;2023-09-19T08:58:25;12.07;;;2.05;;
20271;SDS011;10295;49.812;9.866;2023-09-19T09:00:56;7.28;;;1.90;;
20271;SDS011;10295;49.812;9.866;2023-09-19T09:03:24;8.93;;;2.00;;
20271;SDS011;10295;49.812;9.866;2023-09-19T09:05:52;9.07;;;1.83;;
20271;SDS011;10295;49.812;9.866;2023-09-19T09:08:19;9.32;;;2.05;;
20271;SDS011;10295;49.812;9.866;2023-09-19T09:10:48;8.10;;;1.80;;
20271;SDS011;10295;49.812;9.866;2023-09-19T09:13:16;10.45;;;1.75;;
20271;SDS011;10295;49.812;9.866;2023-09-19T09:15:44;7.88;;;1.70;;
20271;SDS011;10295;49.812;9.866;2023-09-19T09:18:11;6.45;;;1.60;;
20271;SDS011;10295;49.812;9.866;2023-09-19T09:20:39;7.72;;;1.70;;
20271;SDS011;10295;49.812;9.866;2023-09-19T09:23:07;7.53;;;1.50;;
20271;SDS011;10295;49.812;9.866;2023-09-19T09:25:50;5.35;;;1.70;;
20271;SDS011;10295;49.812;9.866;2023-09-19T09:28:23;5.75;;;1.70;;
20271;SDS011;10295;49.812;9.866;2023-09-19T09:30:51;8.20;;;1.88;;
20271;SDS011;10295;49.812;9.866;2023-09-19T09:33:19;6.28;;;1.52;;
20271;SDS011;10295;49.812;9.866;2023-09-19T09:35:48;5.97;;;1.40;;
20271;SDS011;10295;49.812;9.866;2023-09-19T09:38:19;9.00;;;1.98;;
20271;SDS011;10295;49.812;9.866;2023-09-19T09:40:50;6.75;;;1.98;;
20271;SDS011;10295;49.812;9.866;2023-09-19T09:43:28;9.45;;;1.80;;
20271;SDS011;10295;49.812;9.866;2023-09-19T09:46:39;8.82;;;1.80;;
20271;SDS011;10295;49.812;9.866;2023-09-19T09:49:02;7.38;;;1.83;;
20271;SDS011;10295;49.812;9.866;2023-09-19T09:52:17;8.68;;;1.80;;
20271;SDS011;10295;49.812;9.866;2023-09-19T09:55:00;6.93;;;1.73;;
20271;SDS011;10295;49.812;9.866;2023-09-19T09:57:34;7.82;;;1.90;;
20271;SDS011;10295;49.812;9.866;2023-09-19T10:00:02;10.95;;;1.90;;
20271;SDS011;10295;49.812;9.866;2023-09-19T10:02:39;7.45;;;1.60;;
20271;SDS011;10295;49.812;9.866;2023-09-19T10:05:12;7.70;;;1.85;;
20271;SDS011;10295;49.812;9.866;2023-09-19T10:07:54;7.03;;;1.90;;
20271;SDS011;10295;49.812;9.866;2023-09-19T10:10:31;6.45;;;1.58;;
20271;SDS011;10295;49.812;9.866;2023-09-19T10:13:20;5.82;;;1.77;;
20271;SDS011;10295;49.812;9.866;2023-09-19T10:15:55;7.82;;;1.92;;
20271;SDS011;10295;49.812;9.866;2023-09-19T10:18:25;7.43;;;2.35;;
20271;SDS011;10295;49.812;9.866;2023-09-19T10:20:54;5.65;;;1.75;;
20271;SDS011;10295;49.812;9.866;2023-09-19T10:23:22;6.38;;;1.95;;
20271;SDS011;10295;49.812;9.866;2023-09-19T10:25:50;8.27;;;1.90;;
20271;SDS011;10295;49.812;9.866;2023-09-19T10:28:19;7.40;;;1.73;;
20271;SDS011;10295;49.812;9.866;2023-09-19T10:30:50;8.15;;;2.00;;
20271;SDS011;10295;49.812;9.866;2023-09-19T10:33:19;7.50;;;1.92;;
20271;SDS011;10295;49.812;9.866;2023-09-19T10:35:48;7.00;;;1.92;;
20271;SDS011;10295;49.812;9.866;2023-09-19T10:38:18;6.25;;;1.92;;
20271;SDS011;10295;49.812;9.866;2023-09-19T10:40:51;10.63;;;2.00;;
20271;SDS011;10295;49.812;9.866;2023-09-19T10:43:20;9.93;;;1.70;;
20271;SDS011;10295;49.812;9.866;2023-09-19T10:45:48;7.18;;;1.70;;
20271;SDS011;10295;49.812;9.866;2023-09-19T10:48:16;5.60;;;1.55;;
20271;SDS011;10295;49.812;9.866;2023-09-19T10:50:56;7.65;;;1.70;;
20271;SDS011;10295;49.812;9.866;2023-09-19T10:53:26;4.20;;;1.60;;
20271;SDS011;10295;49.812;9.866;2023-09-19T10:55:55;6.90;;;1.77;;
20271;SDS011;10295;49.812;9.866;2023-09-19T10:58:27;6.68;;;1.70;;
20271;SDS011;10295;49.812;9.866;2023-09-19T11:00:56;5.78;;;1.80;;
20271;SDS011;10295;49.812;9.866;2023-09-19T11:03:31;5.95;;;1.80;;
20271;SDS011;10295;49.812;9.866;2023-09-19T11:06:07;8.55;;;1.90;;
20271;SDS011;10295;49.812;9.866;2023-09-19T11:08:52;5.97;;;1.83;;
20271;SDS011;10295;49.812;9.866;2023-09-19T11:22:24;7.07;;;1.95;;
20271;SDS011;10295;49.812;9.866;2023-09-19T11:24:52;6.50;;;1.88;;
20271;SDS011;10295;49.812;9.866;2023-09-19T11:27:22;7.22;;;2.22;;
20271;SDS011;10295;49.812;9.866;2023-09-19T11:29:51;7.53;;;1.80;;
20271;SDS011;10295;49.812;9.866;2023-09-19T11:33:15;8.15;;;1.80;;
20271;SDS011;10295;49.812;9.866;2023-09-19T11:35:58;10.63;;;2.42;;
20271;SDS011;10295;49.812;9.866;2023-09-19T11:38:15;8.30;;;2.40;;
20271;SDS011;10295;49.812;9.866;2023-09-19T11:40:44;8.05;;;1.90;;
20271;SDS011;10295;49.812;9.866;2023-09-19T11:43:30;7.78;;;1.95;;
20271;SDS011;10295;49.812;9.866;2023-09-19T11:48:27;7.40;;;1.92;;
20271;SDS011;10295;49.812;9.866;2023-09-19T11:50:55;5.45;;;1.85;;
20271;SDS011;10295;49.812;9.866;2023-09-19T11:53:23;11.95;;;2.40;;
20271;SDS011;10295;49.812;9.866;2023-09-19T11:55:51;9.82;;;1.92;;
20271;SDS011;10295;49.812;9.866;2023-09-19T11:58:19;8.40;;;1.90;;
20271;SDS011;10295;49.812;9.866;2023-09-19T12:00:46;8.18;;;1.88;;
20271;SDS011;10295;49.812;9.866;2023-09-19T12:03:21;7.75;;;1.88;;
20271;SDS011;10295;49.812;9.866;2023-09-19T12:05:48;9.13;;;1.92;;
20271;SDS011;10295;49.812;9.866;2023-09-19T12:08:15;6.07;;;1.60;;
20271;SDS011;10295;49.812;9.866;2023-09-19T12:10:51;7.43;;;1.63;;
20271;SDS011;10295;49.812;9.866;2023-09-19T12:13:18;8.48;;;2.35;;
20271;SDS011;10295;49.812;9.866;2023-09-19T12:15:45;9.75;;;1.92;;
20271;SDS011;10295;49.812;9.866;2023-09-19T12:18:29;9.95;;;2.08;;
20271;SDS011;10295;49.812;9.866;2023-09-19T12:20:57;16.00;;;2.30;;
20271;SDS011;10295;49.812;9.866;2023-09-19T12:23:25;26.92;;;3.88;;
20271;SDS011;10295;49.812;9.866;2023-09-19T12:25:52;10.68;;;2.20;;
20271;SDS011;10295;49.812;9.866;2023-09-19T12:28:20;15.93;;;2.22;;
20271;SDS011;10295;49.812;9.866;2023-09-19T12:30:51;7.13;;;1.85;;
20271;SDS011;10295;49.812;9.866;2023-09-19T12:33:21;12.02;;;2.00;;
20271;SDS011;10295;49.812;9.866;2023-09-19T12:35:52;9.85;;;1.90;;
20271;SDS011;10295;49.812;9.866;2023-09-19T12:38:26;6.13;;;1.67;;
20271;SDS011;10295;49.812;9.866;2023-09-19T12:41:01;9.18;;;1.70;;
20271;SDS011;10295;49.812;9.866;2023-09-19T12:43:30;8.77;;;1.60;;
20271;SDS011;10295;49.812;9.866;2023-09-19T12:46:02;6.43;;;1.60;;
20271;SDS011;10295;49.812;9.866;2023-09-19T12:48:31;6.55;;;1.60;;
20271;SDS011;10295;49.812;9.866;2023-09-19T12:51:05;6.55;;;1.60;;
20271;SDS011;10295;49.812;9.866;2023-09-19T12:53:34;7.55;;;1.50;;
20271;SDS011;10295;49.812;9.866;2023-09-19T12:56:06;5.88;;;1.63;;
20271;SDS011;10295;49.812;9.866;2023-09-19T12:58:48;8.05;;;1.75;;
20271;SDS011;10295;49.812;9.866;2023-09-19T13:01:15;7.13;;;1.50;;
20271;SDS011;10295;49.812;9.866;2023-09-19T13:03:43;8.15;;;1.65;;
20271;SDS011;10295;49.812;9.866;2023-09-19T13:06:10;8.60;;;1.60;;
20271;SDS011;10295;49.812;9.866;2023-09-19T13:08:39;8.73;;;1.90;;
20271;SDS011;10295;49.812;9.866;2023-09-19T13:11:15;5.85;;;1.63;;
20271;SDS011;10295;49.812;9.866;2023-09-19T13:14:12;6.15;;;1.50;;
20271;SDS011;10295;49.812;9.866;2023-09-19T13:16:53;6.22;;;1.48;;
20271;SDS011;10295;49.812;9.866;2023-09-19T13:19:41;7.70;;;1.42;;
20271;SDS011;10295;49.812;9.866;2023-09-19T13:22:36;5.38;;;1.50;;
20271;SDS011;10295;49.812;9.866;2023-09-19T13:25:17;8.77;;;1.70;;
20271;SDS011;10295;49.812;9.866;2023-09-19T13:27:47;9.90;;;2.15;;
20271;SDS011;10295;49.812;9.866;2023-09-19T13:30:17;15.38;;;2.63;;
20271;SDS011;10295;49.812;9.866;2023-09-19T13:32:45;15.07;;;2.60;;
20271;SDS011;10295;49.812;9.866;2023-09-19T13:35:14;23.33;;;3.63;;
20271;SDS011;10295;49.812;9.866;2023-09-19T13:37:42;10.27;;;2.10;;
20271;SDS011;10295;49.812;9.866;2023-09-19T13:40:13;13.30;;;1.90;;
20271;SDS011;10295;49.812;9.866;2023-09-19T13:42:41;14.30;;;2.47;;
20271;SDS011;10295;49.812;9.866;2023-09-19T13:45:08;8.52;;;2.20;;
20271;SDS011;10295;49.812;9.866;2023-09-19T13:47:39;8.75;;;1.85;;
20271;SDS011;10295;49.812;9.866;2023-09-19T13:50:07;9.23;;;2.13;;
20271;SDS011;10295;49.812;9.866;2023-09-19T13:52:35;19.77;;;2.45;;
20271;SDS011;10295;49.812;9.866;2023-09-19T13:55:02;7.78;;;2.00;;
20271;SDS011;10295;49.812;9.866;2023-09-19T13:57:31;7.80;;;1.90;;
20271;SDS011;10295;49.812;9.866;2023-09-19T13:59:59;10.60;;;1.67;;
20271;SDS011;10295;49.812;9.866;2023-09-19T14:02:27;9.85;;;1.90;;
20271;SDS011;10295;49.812;9.866;2023-09-19T14:04:54;6.55;;;2.03;;
20271;SDS011;10295;49.812;9.866;2023-09-19T14:07:22;5.80;;;1.50;;
20271;SDS011;10295;49.812;9.866;2023-09-19T14:09:49;7.72;;;1.45;;
20271;SDS011;10295;49.812;9.866;2023-09-19T14:12:16;9.43;;;1.67;;
20271;SDS011;10295;49.812;9.866;2023-09-19T14:14:43;5.72;;;1.58;;
20271;SDS011;10295;49.812;9.866;2023-09-19T14:17:11;4.95;;;1.58;;
20271;SDS011;10295;49.812;9.866;2023-09-19T14:19:40;7.53;;;1.60;;
20271;SDS011;10295;49.812;9.866;2023-09-19T14:22:11;6.93;;;1.48;;
20271;SDS011;10295;49.812;9.866;2023-09-19T14:24:40;6.10;;;1.60;;
20271;SDS011;10295;49.812;9.866;2023-09-19T14:27:07;8.85;;;1.70;;
20271;SDS011;10295;49.812;9.866;2023-09-19T14:29:35;5.93;;;1.48;;
20271;SDS011;10295;49.812;9.866;2023-09-19T14:32:02;6.40;;;1.70;;
20271;SDS011;10295;49.812;9.866;2023-09-19T14:34:30;6.45;;;1.73;;
20271;SDS011;10295;49.812;9.866;2023-09-19T14:36:58;5.15;;;1.55;;
20271;SDS011;10295;49.812;9.866;2023-09-19T14:39:25;8.20;;;1.52;;
20271;SDS011;10295;49.812;9.866;2023-09-19T14:41:53;7.40;;;1.60;;
20271;SDS011;10295;49.812;9.866;2023-09-19T14:44:20;4.85;;;1.60;;
20271;SDS011;10295;49.812;9.866;2023-09-19T14:46:48;4.05;;;1.42;;
20271;SDS011;10295;49.812;9.866;2023-09-19T14:49:16;6.40;;;1.80;;
20271;SDS011;10295;49.812;9.866;2023-09-19T14:51:43;9.93;;;1.88;;
20271;SDS011;10295;49.812;9.866;2023-09-19T14:54:11;6.68;;;1.85;;
20271;SDS011;10295;49.812;9.866;2023-09-19T14:56:38;4.88;;;1.60;;
20271;SDS011;10295;49.812;9.866;2023-09-19T14:59:09;7.65;;;1.50;;
20271;SDS011;10295;49.812;9.866;2023-09-19T15:01:37;5.15;;;1.58;;
20271;SDS011;10295;49.812;9.866;2023-09-19T15:04:05;5.82;;;1.63;;
20271;SDS011;10295;49.812;9.866;2023-09-19T15:06:32;5.90;;;1.65;;
20271;SDS011;10295;49.812;9.866;2023-09-19T15:09:00;7.72;;;1.70;;
20271;SDS011;10295;49.812;9.866;2023-09-19T15:11:27;6.15;;;1.83;;
20271;SDS011;10295;49.812;9.866;2023-09-19T15:13:54;9.20;;;1.80;;
20271;SDS011;10295;49.812;9.866;2023-09-19T15:16:22;7.10;;;2.00;;
20271;SDS011;10295;49.812;9.866;2023-09-19T15:18:49;5.88;;;1.75;;
20271;SDS011;10295;49.812;9.866;2023-09-19T15:21:18;5.80;;;1.48;;
20271;SDS011;10295;49.812;9.866;2023-09-19T15:23:45;9.63;;;1.70;;
20271;SDS011;10295;49.812;9.866;2023-09-19T15:26:14;7.47;;;1.58;;
20271;SDS011;10295;49.812;9.866;2023-09-19T15:28:47;7.10;;;1.70;;